Pacific Solarelle — V7UB8 — position and weather

sailwx.info

Track history (hours):
 
Tides and Currents Weather Stations Pressure Air Temp Water Temp Dewpoint Dewpoint Depression Visibility Wind Speed Wind Dir Waves Ship Positions

Pacific Solarelle

Last reported at 2014-Jul-10 23:30 UTC. Time now 2014-Jul-24 15:20 UTC.
Position N 32°50' E 025°55'.
Warning: this ship's position is 13 days out of date.

Length 180 m; draft 8 m.

Type: Tanker. MMSI: 538003925.

Date/timePositionNaut miles runAvg speedWind from/ knotsBaromVisibWave heightAir tempDewpointWater temp
2014-Jul-10 23:30N 32°50' E 025°55'5312.8
2014-Jul-10 19:20N 32°26' E 026°52'1012.8
2014-Jul-10 18:34N 32°22' E 027°02'1312.9
2014-Jul-10 17:33N 32°16' E 027°16'1313.0
2014-Jul-10 16:34N 32°10' E 027°30'1412.8
2014-Jul-10 15:28N 32°04' E 027°45'8612.2
2014-Jul-10 08:25N 31°26' E 029°15'35 4.4
2014-Jul-10 00:28N 31°10' E 029°51'0 0.0
2014-Jul-09 23:10N 31°10' E 029°51'0 0.0
2014-Jul-09 22:31N 31°10' E 029°51'0 0.0
2014-Jul-09 21:10N 31°10' E 029°51'0 0.0
2014-Jul-09 20:28N 31°10' E 029°51'0 0.0
2014-Jul-09 18:25N 31°10' E 029°51'0 0.0
2014-Jul-09 14:07N 31°10' E 029°51'  
2014-Jul-06 22:31N 31°12' E 029°44'14 6.7
2014-Jul-06 20:26N 31°26' E 029°40'1113.0
2014-Jul-06 19:33N 31°36' E 029°35'1312.9
2014-Jul-06 18:33N 31°48' E 029°29'27012.7
2014-Jul-05 21:24N 35°57' E 027°23'2712.6
2014-Jul-05 19:16N 36°17' E 027°00'912.8
2014-Jul-05 18:33N 36°23' E 026°53'1312.2
2014-Jul-05 17:31N 36°35' E 026°47'1212.8
2014-Jul-05 16:33N 36°47' E 026°44'1312.7
2014-Jul-05 15:33N 36°59' E 026°40'1211.7
2014-Jul-05 14:33N 37°08' E 026°31'1212.2
2014-Jul-05 13:33N 37°15' E 026°18'1212.4
2014-Jul-05 12:32N 37°21' E 026°04'1111.6
2014-Jul-05 11:33N 37°26' E 025°51'2511.8
2014-Jul-05 09:24N 37°51' E 025°47'1112.5
2014-Jul-05 08:33N 37°60' E 025°39'1212.4
2014-Jul-05 07:33N 38°10' E 025°30'9311.4
2014-Jul-04 23:23N 39°43' E 025°42'1113.0
2014-Jul-04 22:33N 39°53' E 025°47'  
2014-Jul-02 05:27N 43°43' E 034°20'1011.6
2014-Jul-02 04:33N 43°47' E 034°34'1212.0
2014-Jul-02 03:33N 43°50' E 034°50'1212.3
2014-Jul-02 02:33N 43°55' E 035°06'1312.8
2014-Jul-02 01:33N 43°59' E 035°22'1312.8
2014-Jul-02 00:33N 44°03' E 035°40'1312.8
2014-Jul-01 23:33N 44°07' E 035°56'1312.5
2014-Jul-01 22:33N 44°11' E 036°13'1312.4
2014-Jul-01 21:33N 44°15' E 036°29'2912.6
2014-Jul-01 19:13N 44°24' E 037°08'2112.8
2014-Jul-01 17:33N 44°31' E 037°36'1211.8
2014-Jul-01 16:33N 44°38' E 037°50'  
Track history (hours):
 
Tides and Currents Weather Stations Pressure Air Temp Water Temp Dewpoint Dewpoint Depression Visibility Wind Speed Wind Dir Waves Ship Positions

Pacific Solarelle

Last reported at 2014-Jul-10 23:30 UTC. Time now 2014-Jul-24 15:20 UTC.
Position N 32°50' E 025°55'.
Warning: this ship's position is 13 days out of date.

Length 180 m; draft 8 m.

Type: Tanker. MMSI: 538003925.

Date/timePositionNaut miles runAvg speedWind from/ knotsBaromVisibWave heightAir tempDewpointWater temp
2014-Jul-10 23:30N 32°50' E 025°55'5312.8
2014-Jul-10 19:20N 32°26' E 026°52'1012.8
2014-Jul-10 18:34N 32°22' E 027°02'1312.9
2014-Jul-10 17:33N 32°16' E 027°16'1313.0
2014-Jul-10 16:34N 32°10' E 027°30'1412.8
2014-Jul-10 15:28N 32°04' E 027°45'8612.2
2014-Jul-10 08:25N 31°26' E 029°15'35 4.4
2014-Jul-10 00:28N 31°10' E 029°51'0 0.0
2014-Jul-09 23:10N 31°10' E 029°51'0 0.0
2014-Jul-09 22:31N 31°10' E 029°51'0 0.0
2014-Jul-09 21:10N 31°10' E 029°51'0 0.0
2014-Jul-09 20:28N 31°10' E 029°51'0 0.0
2014-Jul-09 18:25N 31°10' E 029°51'0 0.0
2014-Jul-09 14:07N 31°10' E 029°51'  
2014-Jul-06 22:31N 31°12' E 029°44'14 6.7
2014-Jul-06 20:26N 31°26' E 029°40'1113.0
2014-Jul-06 19:33N 31°36' E 029°35'1312.9
2014-Jul-06 18:33N 31°48' E 029°29'27012.7
2014-Jul-05 21:24N 35°57' E 027°23'2712.6
2014-Jul-05 19:16N 36°17' E 027°00'912.8
2014-Jul-05 18:33N 36°23' E 026°53'1312.2
2014-Jul-05 17:31N 36°35' E 026°47'1212.8
2014-Jul-05 16:33N 36°47' E 026°44'1312.7
2014-Jul-05 15:33N 36°59' E 026°40'1211.7
2014-Jul-05 14:33N 37°08' E 026°31'1212.2
2014-Jul-05 13:33N 37°15' E 026°18'1212.4
2014-Jul-05 12:32N 37°21' E 026°04'1111.6
2014-Jul-05 11:33N 37°26' E 025°51'2511.8
2014-Jul-05 09:24N 37°51' E 025°47'1112.5
2014-Jul-05 08:33N 37°60' E 025°39'1212.4
2014-Jul-05 07:33N 38°10' E 025°30'9311.4
2014-Jul-04 23:23N 39°43' E 025°42'1113.0
2014-Jul-04 22:33N 39°53' E 025°47'  
2014-Jul-02 05:27N 43°43' E 034°20'1011.6
2014-Jul-02 04:33N 43°47' E 034°34'1212.0
2014-Jul-02 03:33N 43°50' E 034°50'1212.3
2014-Jul-02 02:33N 43°55' E 035°06'1312.8
2014-Jul-02 01:33N 43°59' E 035°22'1312.8
2014-Jul-02 00:33N 44°03' E 035°40'1312.8
2014-Jul-01 23:33N 44°07' E 035°56'1312.5
2014-Jul-01 22:33N 44°11' E 036°13'1312.4
2014-Jul-01 21:33N 44°15' E 036°29'2912.6
2014-Jul-01 19:13N 44°24' E 037°08'2112.8
2014-Jul-01 17:33N 44°31' E 037°36'1211.8
2014-Jul-01 16:33N 44°38' E 037°50'  

Dump ship's entire track history